Friday, January 19, 2018, 2:34 AM EST
Back to Local

KJYO, Leesburg / Godfrey

Location: Leesburg, VA, United States Lat: 39.083
Local Time: 2:34 AM EST ( 7:34 GMT) Lon: -77.567
Time Zone: US/Eastern Elev: 390 ft

Show me the last for .
Show Decoded

2018-01-19 02:15 METAR KJYO 190715Z AUTO 21003KT 10SM CLR 00/M11 A3010 RMK AO2 =
2018-01-19 01:55 METAR KJYO 190655Z AUTO 20006KT 10SM CLR 00/M11 A3010 RMK AO2 =
2018-01-19 01:35 METAR KJYO 190635Z AUTO 19005KT 10SM CLR 00/M12 A3010 RMK AO2 =
2018-01-19 01:15 METAR KJYO 190615Z AUTO 20006KT 10SM CLR M01/M11 A3011 RMK AO2 =
2018-01-19 00:55 METAR KJYO 190555Z AUTO 21004KT 10SM CLR 00/M11 A3011 RMK AO2 =
2018-01-19 00:35 METAR KJYO 190535Z AUTO 21005KT 10SM CLR 01/M11 A3011 RMK AO2 =
2018-01-19 00:15 METAR KJYO 190515Z AUTO 18005KT 10SM CLR 01/M11 A3011 RMK AO2 =
2018-01-18 23:55 METAR KJYO 190455Z AUTO 29006KT 10SM CLR 00/M11 A3012 RMK AO2 =
2018-01-18 23:35 METAR KJYO 190435Z AUTO 32007KT 10SM CLR 01/M11 A3012 RMK AO2 =
2018-01-18 23:15 METAR KJYO 190415Z AUTO 29004KT 10SM CLR 02/M11 A3012 RMK AO2 =
2018-01-18 22:55 METAR KJYO 190355Z AUTO 30005KT 10SM CLR 01/M11 A3012 RMK AO2 =
2018-01-18 22:35 METAR KJYO 190335Z AUTO 33006KT 10SM CLR 03/M12 A3011 RMK AO2 =
2018-01-18 22:15 METAR KJYO 190315Z AUTO 33009G15KT 10SM CLR 03/M12 A3011 RMK AO2 =
2018-01-18 21:55 METAR KJYO 190255Z AUTO 01005KT 10SM CLR 04/M12 A3012 RMK AO2 =
2018-01-18 21:35 METAR KJYO 190235Z AUTO 01004KT 10SM CLR 04/M12 A3012 RMK AO2 =
2018-01-18 21:15 METAR KJYO 190215Z AUTO 35008KT 10SM CLR 04/M12 A3012 RMK AO2 =
2018-01-18 20:55 METAR KJYO 190155Z AUTO 00000KT 10SM CLR 04/M13 A3011 RMK AO2 =
2018-01-18 20:35 METAR KJYO 190135Z AUTO 34007KT 10SM CLR 04/M13 A3010 RMK AO2 =
2018-01-18 20:15 METAR KJYO 190115Z AUTO 32007KT 10SM CLR 04/M13 A3009 RMK AO2 =
2018-01-18 19:55 METAR KJYO 190055Z AUTO 32009G17KT 10SM CLR 04/M13 A3009 RMK AO2 =
2018-01-18 19:35 METAR KJYO 190035Z AUTO 33009KT 10SM CLR 04/M13 A3010 RMK AO2 =
2018-01-18 19:15 METAR KJYO 190015Z AUTO 32012G15KT 10SM CLR 04/M13 A3009 RMK AO2 =
2018-01-18 18:55 METAR KJYO 182355Z AUTO 31012G16KT 10SM CLR 05/M13 A3009 RMK AO2 =
2018-01-18 18:35 METAR KJYO 182335Z AUTO 34005KT 10SM CLR 05/M14 A3008 RMK AO2 =
2018-01-18 18:15 METAR KJYO 182315Z AUTO 36003KT 10SM CLR 05/M14 A3008 RMK AO2 =
2018-01-18 17:55 METAR KJYO 182255Z AUTO 36004KT 10SM CLR 05/M14 A3007 RMK AO2 =
2018-01-18 17:35 METAR KJYO 182235Z AUTO 35005G15KT 10SM CLR 06/M13 A3006 RMK AO2 =
2018-01-18 17:15 METAR KJYO 182215Z AUTO 33009KT 10SM CLR 06/M13 A3005 RMK AO2 =
2018-01-18 16:55 METAR KJYO 182155Z AUTO 31010G19KT 10SM CLR 06/M13 A3004 RMK AO2 =
2018-01-18 16:35 METAR KJYO 182135Z AUTO 31013G17KT 10SM CLR 07/M13 A3004 RMK AO2 =
2018-01-18 16:15 METAR KJYO 182115Z AUTO 31012KT 10SM CLR 07/M12 A3004 RMK AO2 =
2018-01-18 15:55 METAR KJYO 182055Z AUTO 29011G15KT 10SM CLR 07/M12 A3003 RMK AO2 =
2018-01-18 15:35 METAR KJYO 182035Z AUTO 30008G15KT 10SM CLR 07/M12 A3003 RMK AO2 =
2018-01-18 15:15 METAR KJYO 182015Z AUTO 33012G19KT 10SM CLR 07/M12 A3003 RMK AO2 =
2018-01-18 14:55 METAR KJYO 181955Z AUTO 30009G19KT 10SM CLR 07/M12 A3004 RMK AO2 =
2018-01-18 14:35 METAR KJYO 181935Z AUTO 31012G19KT 10SM CLR 07/M12 A3004 RMK AO2 =
2018-01-18 14:15 METAR KJYO 181915Z AUTO 29010G21KT 10SM CLR 07/M12 A3005 RMK AO2 =
2018-01-18 13:55 METAR KJYO 181855Z AUTO 32013G19KT 10SM CLR 07/M12 A3006 RMK AO2 =
2018-01-18 13:35 METAR KJYO 181835Z AUTO 32014G19KT 10SM CLR 07/M11 A3006 RMK AO2 =
2018-01-18 13:15 METAR KJYO 181815Z AUTO 29016G21KT 10SM CLR 06/M11 A3008 RMK AO2 =
2018-01-18 12:55 METAR KJYO 181755Z AUTO 31016G22KT 10SM CLR 06/M12 A3008 RMK AO2 =
2018-01-18 12:35 METAR KJYO 181735Z AUTO 31014G23KT 10SM CLR 05/M11 A3009 RMK AO2 =
2018-01-18 12:15 METAR KJYO 181715Z AUTO 30016G24KT 10SM CLR 05/M12 A3011 RMK AO2 =
2018-01-18 11:55 METAR KJYO 181655Z AUTO 30019G24KT 10SM CLR 03/M12 A3012 RMK AO2 =
2018-01-18 11:35 METAR KJYO 181635Z AUTO 30019G24KT 270V330 10SM CLR 03/M12 A3014 RMK AO2 =
2018-01-18 11:15 METAR KJYO 181615Z AUTO 29004G19KT 10SM CLR 02/M12 A3016 RMK AO2 =
2018-01-18 10:55 METAR KJYO 181555Z AUTO 30018G24KT 10SM CLR 01/M12 A3017 RMK AO2 =
2018-01-18 10:30 METAR KJYO 181530Z AUTO 31013G20KT 10SM CLR 00/M12 A3018 RMK AO2 =
2018-01-18 10:15 METAR KJYO 181515Z AUTO 31014G17KT 10SM CLR 00/M12 A3018 RMK AO2 =
2018-01-18 09:55 METAR KJYO 181455Z AUTO 32017G25KT 10SM CLR 00/M13 A3019 RMK AO2 =
2018-01-18 09:35 METAR KJYO 181435Z AUTO 32019G27KT 10SM CLR M01/M13 A3018 RMK AO2 =
2018-01-18 09:15 METAR KJYO 181415Z AUTO 32013G25KT 10SM CLR M02/M13 A3018 RMK AO2 =
2018-01-18 08:55 METAR KJYO 181355Z AUTO 32018G28KT 10SM CLR M02/M12 A3018 RMK AO2 =
2018-01-18 08:35 METAR KJYO 181335Z AUTO 31020G28KT 10SM CLR M03/M12 A3018 RMK AO2 =
2018-01-18 08:15 METAR KJYO 181315Z AUTO 32015G18KT 10SM CLR M04/M12 A3019 RMK AO2 =
2018-01-18 07:55 METAR KJYO 181255Z AUTO 31011G16KT 10SM CLR M05/M12 A3020 RMK AO2 =
2018-01-18 07:35 METAR KJYO 181235Z AUTO 32009KT 10SM CLR M06/M12 A3020 RMK AO2 =
2018-01-18 07:15 METAR KJYO 181215Z AUTO 31007KT 10SM CLR M06/M12 A3020 RMK AO2 =
2018-01-18 06:55 METAR KJYO 181155Z AUTO 32008KT 10SM CLR M06/M13 A3019 RMK AO2 =
2018-01-18 06:35 METAR KJYO 181135Z AUTO 31009KT 10SM CLR M06/M13 A3019 RMK AO2 =
2018-01-18 06:15 METAR KJYO 181115Z AUTO 32012G15KT 10SM CLR M06/M12 A3018 RMK AO2 =
2018-01-18 05:55 METAR KJYO 181055Z AUTO 33011G17KT 10SM CLR M06/M13 A3018 RMK AO2 =
2018-01-18 05:35 METAR KJYO 181035Z AUTO 33012G19KT 10SM CLR M06/M13 A3018 RMK AO2 =
2018-01-18 05:15 METAR KJYO 181015Z AUTO 33012G15KT 10SM CLR M07/M12 A3018 RMK AO2 =
2018-01-18 04:55 METAR KJYO 180955Z AUTO 32012G15KT 10SM CLR M07/M12 A3017 RMK AO2 =
2018-01-18 04:35 METAR KJYO 180935Z AUTO 35006G15KT 10SM CLR M07/M12 A3017 RMK AO2 =
2018-01-18 04:15 METAR KJYO 180915Z AUTO 33009G17KT 10SM CLR M07/M12 A3017 RMK AO2 =
2018-01-18 03:55 METAR KJYO 180855Z AUTO 33010KT 10SM CLR M07/M12 A3018 RMK AO2 =
2018-01-18 03:35 METAR KJYO 180835Z AUTO 33012G20KT 10SM CLR M07/M12 A3019 RMK AO2 =
2018-01-18 03:15 METAR KJYO 180815Z AUTO 34015G20KT 10SM CLR M07/M12 A3020 RMK AO2 =
2018-01-18 02:55 METAR KJYO 180755Z AUTO 33015G25KT 10SM CLR M07/M12 A3021 RMK AO2 =
2018-01-18 02:35 METAR KJYO 180735Z AUTO 34013G19KT 10SM CLR M07/M12 A3023 RMK AO2 =

Support USWX by starting your Amazon purchase here.